sensor_id;sensor_type;location;lat;lon;timestamp;P1;durP1;ratioP1;P2;durP2;ratioP2
9306;SDS011;4691;47.612;7.610;2022-09-11T00:01:25;2.75;;;1.40;;
9306;SDS011;4691;47.612;7.610;2022-09-11T00:03:51;3.58;;;1.10;;
9306;SDS011;4691;47.612;7.610;2022-09-11T00:06:23;3.50;;;1.20;;
9306;SDS011;4691;47.612;7.610;2022-09-11T00:09:05;4.55;;;1.15;;
9306;SDS011;4691;47.612;7.610;2022-09-11T00:11:37;2.67;;;1.15;;
9306;SDS011;4691;47.612;7.610;2022-09-11T00:14:05;2.65;;;1.13;;
9306;SDS011;4691;47.612;7.610;2022-09-11T00:16:34;3.78;;;1.40;;
9306;SDS011;4691;47.612;7.610;2022-09-11T00:19:16;5.05;;;1.90;;
9306;SDS011;4691;47.612;7.610;2022-09-11T00:21:48;3.50;;;1.50;;
9306;SDS011;4691;47.612;7.610;2022-09-11T00:24:16;4.95;;;1.83;;
9306;SDS011;4691;47.612;7.610;2022-09-11T00:26:44;3.30;;;1.50;;
9306;SDS011;4691;47.612;7.610;2022-09-11T00:29:11;4.50;;;1.38;;
9306;SDS011;4691;47.612;7.610;2022-09-11T00:31:47;5.47;;;1.50;;
9306;SDS011;4691;47.612;7.610;2022-09-11T00:34:18;3.40;;;1.52;;
9306;SDS011;4691;47.612;7.610;2022-09-11T00:36:46;3.45;;;1.50;;
9306;SDS011;4691;47.612;7.610;2022-09-11T00:39:12;3.42;;;1.30;;
9306;SDS011;4691;47.612;7.610;2022-09-11T00:41:45;4.75;;;1.40;;
9306;SDS011;4691;47.612;7.610;2022-09-11T00:49:31;3.05;;;1.33;;
9306;SDS011;4691;47.612;7.610;2022-09-11T00:52:11;5.60;;;1.40;;
9306;SDS011;4691;47.612;7.610;2022-09-11T01:01:23;3.30;;;1.48;;
9306;SDS011;4691;47.612;7.610;2022-09-11T01:04:21;3.70;;;1.40;;
9306;SDS011;4691;47.612;7.610;2022-09-11T01:06:51;5.97;;;1.42;;
9306;SDS011;4691;47.612;7.610;2022-09-11T01:09:23;2.63;;;1.65;;
9306;SDS011;4691;47.612;7.610;2022-09-11T01:23:18;5.55;;;1.65;;
9306;SDS011;4691;47.612;7.610;2022-09-11T01:26:00;2.05;;;1.30;;
9306;SDS011;4691;47.612;7.610;2022-09-11T01:28:51;3.38;;;1.50;;
9306;SDS011;4691;47.612;7.610;2022-09-11T01:31:28;3.85;;;1.60;;
9306;SDS011;4691;47.612;7.610;2022-09-11T01:34:05;2.25;;;1.48;;
9306;SDS011;4691;47.612;7.610;2022-09-11T01:36:39;3.13;;;1.50;;
9306;SDS011;4691;47.612;7.610;2022-09-11T01:39:13;3.17;;;1.60;;
9306;SDS011;4691;47.612;7.610;2022-09-11T01:41:50;3.15;;;1.40;;
9306;SDS011;4691;47.612;7.610;2022-09-11T01:44:34;3.78;;;1.40;;
9306;SDS011;4691;47.612;7.610;2022-09-11T01:47:06;4.53;;;1.60;;
9306;SDS011;4691;47.612;7.610;2022-09-11T01:49:46;4.95;;;1.73;;
9306;SDS011;4691;47.612;7.610;2022-09-11T01:52:26;6.25;;;1.77;;
9306;SDS011;4691;47.612;7.610;2022-09-11T01:57:43;4.13;;;1.70;;
9306;SDS011;4691;47.612;7.610;2022-09-11T02:00:17;3.95;;;1.70;;
9306;SDS011;4691;47.612;7.610;2022-09-11T02:05:48;4.03;;;1.85;;
9306;SDS011;4691;47.612;7.610;2022-09-11T02:08:36;3.75;;;1.45;;
9306;SDS011;4691;47.612;7.610;2022-09-11T02:11:24;5.47;;;1.97;;
9306;SDS011;4691;47.612;7.610;2022-09-11T02:14:10;3.63;;;1.70;;
9306;SDS011;4691;47.612;7.610;2022-09-11T02:20:38;3.60;;;1.27;;
9306;SDS011;4691;47.612;7.610;2022-09-11T02:23:16;4.20;;;1.40;;
9306;SDS011;4691;47.612;7.610;2022-09-11T02:25:45;3.08;;;1.50;;
9306;SDS011;4691;47.612;7.610;2022-09-11T02:28:14;5.75;;;1.73;;
9306;SDS011;4691;47.612;7.610;2022-09-11T02:36:37;2.53;;;1.35;;
9306;SDS011;4691;47.612;7.610;2022-09-11T02:39:39;3.25;;;1.50;;
9306;SDS011;4691;47.612;7.610;2022-09-11T02:48:34;4.47;;;1.70;;
9306;SDS011;4691;47.612;7.610;2022-09-11T02:54:23;3.42;;;1.58;;
9306;SDS011;4691;47.612;7.610;2022-09-11T03:02:54;4.70;;;1.70;;
9306;SDS011;4691;47.612;7.610;2022-09-11T03:05:22;3.72;;;1.52;;
9306;SDS011;4691;47.612;7.610;2022-09-11T03:07:52;2.72;;;1.60;;
9306;SDS011;4691;47.612;7.610;2022-09-11T03:10:28;4.47;;;1.58;;
9306;SDS011;4691;47.612;7.610;2022-09-11T03:13:02;3.72;;;1.50;;
9306;SDS011;4691;47.612;7.610;2022-09-11T03:15:33;3.95;;;1.75;;
9306;SDS011;4691;47.612;7.610;2022-09-11T03:18:43;4.57;;;1.70;;
9306;SDS011;4691;47.612;7.610;2022-09-11T03:21:04;6.40;;;1.90;;
9306;SDS011;4691;47.612;7.610;2022-09-11T03:23:37;2.97;;;1.52;;
9306;SDS011;4691;47.612;7.610;2022-09-11T03:26:05;2.63;;;1.60;;
9306;SDS011;4691;47.612;7.610;2022-09-11T03:28:34;2.43;;;1.63;;
9306;SDS011;4691;47.612;7.610;2022-09-11T03:33:32;6.65;;;1.98;;
9306;SDS011;4691;47.612;7.610;2022-09-11T03:35:58;3.30;;;1.63;;
9306;SDS011;4691;47.612;7.610;2022-09-11T03:38:24;3.47;;;1.90;;
9306;SDS011;4691;47.612;7.610;2022-09-11T03:40:55;6.72;;;1.90;;
9306;SDS011;4691;47.612;7.610;2022-09-11T03:43:26;4.25;;;1.80;;
9306;SDS011;4691;47.612;7.610;2022-09-11T03:46:07;4.00;;;1.90;;
9306;SDS011;4691;47.612;7.610;2022-09-11T03:48:54;3.28;;;1.48;;
9306;SDS011;4691;47.612;7.610;2022-09-11T03:51:25;3.05;;;1.60;;
9306;SDS011;4691;47.612;7.610;2022-09-11T03:53:53;5.50;;;1.70;;
9306;SDS011;4691;47.612;7.610;2022-09-11T03:56:35;3.15;;;1.70;;
9306;SDS011;4691;47.612;7.610;2022-09-11T03:59:05;4.47;;;1.83;;
9306;SDS011;4691;47.612;7.610;2022-09-11T04:01:41;2.50;;;1.70;;
9306;SDS011;4691;47.612;7.610;2022-09-11T04:04:07;3.08;;;1.40;;
9306;SDS011;4691;47.612;7.610;2022-09-11T04:06:34;3.17;;;1.55;;
9306;SDS011;4691;47.612;7.610;2022-09-11T04:09:00;2.38;;;1.50;;
9306;SDS011;4691;47.612;7.610;2022-09-11T04:11:28;4.82;;;1.80;;
9306;SDS011;4691;47.612;7.610;2022-09-11T04:14:01;3.63;;;1.88;;
9306;SDS011;4691;47.612;7.610;2022-09-11T04:16:46;5.30;;;1.65;;
9306;SDS011;4691;47.612;7.610;2022-09-11T04:19:41;5.05;;;1.85;;
9306;SDS011;4691;47.612;7.610;2022-09-11T04:22:20;3.22;;;1.55;;
9306;SDS011;4691;47.612;7.610;2022-09-11T04:24:48;7.53;;;1.80;;
9306;SDS011;4691;47.612;7.610;2022-09-11T04:27:16;5.63;;;2.00;;
9306;SDS011;4691;47.612;7.610;2022-09-11T04:29:59;2.70;;;1.67;;
9306;SDS011;4691;47.612;7.610;2022-09-11T04:32:29;3.03;;;1.75;;
9306;SDS011;4691;47.612;7.610;2022-09-11T04:34:58;2.10;;;1.40;;
9306;SDS011;4691;47.612;7.610;2022-09-11T04:37:26;4.20;;;1.63;;
9306;SDS011;4691;47.612;7.610;2022-09-11T04:39:55;4.68;;;1.40;;
9306;SDS011;4691;47.612;7.610;2022-09-11T04:42:32;4.60;;;1.95;;
9306;SDS011;4691;47.612;7.610;2022-09-11T04:44:58;5.88;;;1.60;;
9306;SDS011;4691;47.612;7.610;2022-09-11T04:47:32;6.78;;;1.73;;
9306;SDS011;4691;47.612;7.610;2022-09-11T04:50:12;3.45;;;1.67;;
9306;SDS011;4691;47.612;7.610;2022-09-11T04:52:48;2.30;;;1.40;;
9306;SDS011;4691;47.612;7.610;2022-09-11T04:55:37;4.32;;;1.98;;
9306;SDS011;4691;47.612;7.610;2022-09-11T04:58:05;2.50;;;1.73;;
9306;SDS011;4691;47.612;7.610;2022-09-11T05:00:33;3.67;;;1.60;;
9306;SDS011;4691;47.612;7.610;2022-09-11T05:03:04;2.58;;;1.45;;
9306;SDS011;4691;47.612;7.610;2022-09-11T05:05:43;2.00;;;1.50;;
9306;SDS011;4691;47.612;7.610;2022-09-11T05:08:11;3.53;;;1.52;;
9306;SDS011;4691;47.612;7.610;2022-09-11T05:13:19;4.28;;;1.90;;
9306;SDS011;4691;47.612;7.610;2022-09-11T05:16:16;4.07;;;1.80;;
9306;SDS011;4691;47.612;7.610;2022-09-11T05:18:48;2.55;;;1.52;;
9306;SDS011;4691;47.612;7.610;2022-09-11T05:21:18;5.28;;;1.90;;
9306;SDS011;4691;47.612;7.610;2022-09-11T05:23:56;2.17;;;1.50;;
9306;SDS011;4691;47.612;7.610;2022-09-11T05:26:30;3.38;;;1.67;;
9306;SDS011;4691;47.612;7.610;2022-09-11T05:29:14;3.13;;;1.65;;
9306;SDS011;4691;47.612;7.610;2022-09-11T05:31:53;3.30;;;1.50;;
9306;SDS011;4691;47.612;7.610;2022-09-11T05:34:19;3.22;;;1.70;;
9306;SDS011;4691;47.612;7.610;2022-09-11T05:37:00;3.15;;;1.42;;
9306;SDS011;4691;47.612;7.610;2022-09-11T05:39:29;2.63;;;1.52;;
9306;SDS011;4691;47.612;7.610;2022-09-11T05:42:00;3.67;;;1.80;;
9306;SDS011;4691;47.612;7.610;2022-09-11T05:44:29;2.75;;;1.60;;
9306;SDS011;4691;47.612;7.610;2022-09-11T05:46:56;6.53;;;1.80;;
9306;SDS011;4691;47.612;7.610;2022-09-11T05:49:34;3.45;;;1.98;;
9306;SDS011;4691;47.612;7.610;2022-09-11T05:51:59;3.22;;;1.38;;
9306;SDS011;4691;47.612;7.610;2022-09-11T05:54:34;4.30;;;1.90;;
9306;SDS011;4691;47.612;7.610;2022-09-11T05:57:08;5.70;;;1.60;;
9306;SDS011;4691;47.612;7.610;2022-09-11T05:59:40;2.95;;;1.63;;
9306;SDS011;4691;47.612;7.610;2022-09-11T06:02:16;2.67;;;1.63;;
9306;SDS011;4691;47.612;7.610;2022-09-11T06:04:41;3.72;;;1.67;;
9306;SDS011;4691;47.612;7.610;2022-09-11T06:07:14;3.00;;;1.48;;
9306;SDS011;4691;47.612;7.610;2022-09-11T06:09:48;2.75;;;1.67;;
9306;SDS011;4691;47.612;7.610;2022-09-11T06:12:23;4.72;;;2.17;;
9306;SDS011;4691;47.612;7.610;2022-09-11T06:14:53;2.85;;;1.80;;
9306;SDS011;4691;47.612;7.610;2022-09-11T06:17:27;5.65;;;1.70;;
9306;SDS011;4691;47.612;7.610;2022-09-11T06:19:52;2.30;;;1.67;;
9306;SDS011;4691;47.612;7.610;2022-09-11T06:22:29;4.68;;;1.88;;
9306;SDS011;4691;47.612;7.610;2022-09-11T06:24:58;3.67;;;1.70;;
9306;SDS011;4691;47.612;7.610;2022-09-11T06:30:19;3.80;;;1.42;;
9306;SDS011;4691;47.612;7.610;2022-09-11T06:32:55;4.07;;;1.80;;
9306;SDS011;4691;47.612;7.610;2022-09-11T06:35:21;4.38;;;1.80;;
9306;SDS011;4691;47.612;7.610;2022-09-11T06:38:04;7.03;;;1.73;;
9306;SDS011;4691;47.612;7.610;2022-09-11T06:40:47;4.65;;;1.65;;
9306;SDS011;4691;47.612;7.610;2022-09-11T06:43:20;4.50;;;1.98;;
9306;SDS011;4691;47.612;7.610;2022-09-11T06:45:49;5.20;;;1.70;;
9306;SDS011;4691;47.612;7.610;2022-09-11T06:48:23;3.25;;;1.60;;
9306;SDS011;4691;47.612;7.610;2022-09-11T06:51:11;3.90;;;1.88;;
9306;SDS011;4691;47.612;7.610;2022-09-11T06:53:58;2.50;;;1.45;;
9306;SDS011;4691;47.612;7.610;2022-09-11T06:56:27;3.33;;;1.63;;
9306;SDS011;4691;47.612;7.610;2022-09-11T06:59:03;4.15;;;1.75;;
9306;SDS011;4691;47.612;7.610;2022-09-11T07:07:36;5.28;;;1.75;;
9306;SDS011;4691;47.612;7.610;2022-09-11T07:10:11;5.22;;;2.10;;
9306;SDS011;4691;47.612;7.610;2022-09-11T07:12:54;3.63;;;1.70;;
9306;SDS011;4691;47.612;7.610;2022-09-11T07:15:27;4.63;;;1.80;;
9306;SDS011;4691;47.612;7.610;2022-09-11T07:18:01;4.78;;;1.65;;
9306;SDS011;4691;47.612;7.610;2022-09-11T07:20:30;3.05;;;1.42;;
9306;SDS011;4691;47.612;7.610;2022-09-11T07:23:01;3.30;;;1.73;;
9306;SDS011;4691;47.612;7.610;2022-09-11T07:25:30;4.30;;;2.20;;
9306;SDS011;4691;47.612;7.610;2022-09-11T07:28:17;4.70;;;1.65;;
9306;SDS011;4691;47.612;7.610;2022-09-11T07:30:56;4.10;;;2.00;;
9306;SDS011;4691;47.612;7.610;2022-09-11T07:33:37;3.30;;;1.70;;
9306;SDS011;4691;47.612;7.610;2022-09-11T07:36:13;2.97;;;1.60;;
9306;SDS011;4691;47.612;7.610;2022-09-11T07:38:49;3.33;;;1.50;;
9306;SDS011;4691;47.612;7.610;2022-09-11T07:41:28;2.60;;;1.65;;
9306;SDS011;4691;47.612;7.610;2022-09-11T07:44:04;3.35;;;1.60;;
9306;SDS011;4691;47.612;7.610;2022-09-11T07:46:31;4.25;;;1.77;;
9306;SDS011;4691;47.612;7.610;2022-09-11T07:49:05;3.40;;;1.70;;
9306;SDS011;4691;47.612;7.610;2022-09-11T07:51:31;4.82;;;1.67;;
9306;SDS011;4691;47.612;7.610;2022-09-11T07:54:11;3.20;;;1.75;;
9306;SDS011;4691;47.612;7.610;2022-09-11T07:56:36;4.47;;;1.70;;
9306;SDS011;4691;47.612;7.610;2022-09-11T07:59:06;5.67;;;1.70;;
9306;SDS011;4691;47.612;7.610;2022-09-11T08:04:39;6.25;;;1.80;;
9306;SDS011;4691;47.612;7.610;2022-09-11T08:07:13;4.75;;;1.63;;
9306;SDS011;4691;47.612;7.610;2022-09-11T08:09:59;3.97;;;1.52;;
9306;SDS011;4691;47.612;7.610;2022-09-11T08:12:29;2.10;;;1.42;;
9306;SDS011;4691;47.612;7.610;2022-09-11T08:15:09;5.05;;;2.17;;
9306;SDS011;4691;47.612;7.610;2022-09-11T08:17:53;5.43;;;1.70;;
9306;SDS011;4691;47.612;7.610;2022-09-11T08:20:41;3.72;;;1.67;;
9306;SDS011;4691;47.612;7.610;2022-09-11T08:23:07;3.83;;;1.60;;
9306;SDS011;4691;47.612;7.610;2022-09-11T08:25:36;2.90;;;1.50;;
9306;SDS011;4691;47.612;7.610;2022-09-11T08:28:09;3.42;;;1.60;;
9306;SDS011;4691;47.612;7.610;2022-09-11T08:33:33;3.00;;;1.30;;
9306;SDS011;4691;47.612;7.610;2022-09-11T08:36:25;4.43;;;2.17;;
9306;SDS011;4691;47.612;7.610;2022-09-11T08:39:03;2.83;;;1.30;;
9306;SDS011;4691;47.612;7.610;2022-09-11T08:44:59;3.83;;;1.88;;
9306;SDS011;4691;47.612;7.610;2022-09-11T08:47:46;8.07;;;1.45;;
9306;SDS011;4691;47.612;7.610;2022-09-11T08:53:21;5.00;;;2.08;;
9306;SDS011;4691;47.612;7.610;2022-09-11T08:55:58;2.35;;;1.25;;
9306;SDS011;4691;47.612;7.610;2022-09-11T09:04:37;1.38;;;1.20;;
9306;SDS011;4691;47.612;7.610;2022-09-11T09:07:42;3.67;;;1.45;;
9306;SDS011;4691;47.612;7.610;2022-09-11T09:10:46;5.20;;;1.33;;
9306;SDS011;4691;47.612;7.610;2022-09-11T09:19:50;2.80;;;1.30;;
9306;SDS011;4691;47.612;7.610;2022-09-11T09:22:55;4.05;;;2.13;;
9306;SDS011;4691;47.612;7.610;2022-09-11T09:28:37;3.20;;;1.30;;
9306;SDS011;4691;47.612;7.610;2022-09-11T09:31:55;2.83;;;1.70;;
9306;SDS011;4691;47.612;7.610;2022-09-11T09:34:29;2.97;;;1.25;;
9306;SDS011;4691;47.612;7.610;2022-09-11T09:37:21;2.83;;;1.20;;
9306;SDS011;4691;47.612;7.610;2022-09-11T09:40:16;2.92;;;1.38;;
9306;SDS011;4691;47.612;7.610;2022-09-11T09:49:00;2.30;;;1.20;;
9306;SDS011;4691;47.612;7.610;2022-09-11T09:51:28;2.53;;;1.27;;
9306;SDS011;4691;47.612;7.610;2022-09-11T09:54:00;2.47;;;1.10;;
9306;SDS011;4691;47.612;7.610;2022-09-11T09:56:33;1.77;;;1.17;;
9306;SDS011;4691;47.612;7.610;2022-09-11T10:08:55;4.85;;;1.25;;
9306;SDS011;4691;47.612;7.610;2022-09-11T10:15:17;3.15;;;1.15;;
9306;SDS011;4691;47.612;7.610;2022-09-11T10:18:19;3.00;;;0.90;;
9306;SDS011;4691;47.612;7.610;2022-09-11T10:29:18;2.33;;;1.05;;
9306;SDS011;4691;47.612;7.610;2022-09-11T10:42:35;2.70;;;1.02;;
9306;SDS011;4691;47.612;7.610;2022-09-11T10:45:29;2.72;;;0.95;;
9306;SDS011;4691;47.612;7.610;2022-09-11T10:53:55;1.88;;;0.90;;
9306;SDS011;4691;47.612;7.610;2022-09-11T10:56:27;1.65;;;1.00;;
9306;SDS011;4691;47.612;7.610;2022-09-11T11:05:11;1.77;;;0.82;;
9306;SDS011;4691;47.612;7.610;2022-09-11T11:14:20;2.63;;;0.88;;
9306;SDS011;4691;47.612;7.610;2022-09-11T11:18:08;1.42;;;0.80;;
9306;SDS011;4691;47.612;7.610;2022-09-11T11:20:54;3.53;;;0.90;;
9306;SDS011;4691;47.612;7.610;2022-09-11T11:23:43;1.50;;;0.95;;
9306;SDS011;4691;47.612;7.610;2022-09-11T11:35:20;2.05;;;0.80;;
9306;SDS011;4691;47.612;7.610;2022-09-11T11:37:52;1.50;;;0.80;;
9306;SDS011;4691;47.612;7.610;2022-09-11T11:40:35;1.48;;;0.82;;
9306;SDS011;4691;47.612;7.610;2022-09-11T11:46:49;1.92;;;0.80;;
9306;SDS011;4691;47.612;7.610;2022-09-11T11:49:34;2.00;;;0.80;;
9306;SDS011;4691;47.612;7.610;2022-09-11T11:55:57;1.30;;;0.80;;
9306;SDS011;4691;47.612;7.610;2022-09-11T12:05:31;1.42;;;0.70;;
9306;SDS011;4691;47.612;7.610;2022-09-11T12:11:04;1.40;;;0.90;;
9306;SDS011;4691;47.612;7.610;2022-09-11T12:20:52;1.55;;;0.80;;
9306;SDS011;4691;47.612;7.610;2022-09-11T12:26:37;1.25;;;0.68;;
9306;SDS011;4691;47.612;7.610;2022-09-11T12:44:28;1.48;;;0.70;;
9306;SDS011;4691;47.612;7.610;2022-09-11T12:49:30;1.75;;;0.70;;
9306;SDS011;4691;47.612;7.610;2022-09-11T12:52:14;1.65;;;0.60;;
9306;SDS011;4691;47.612;7.610;2022-09-11T12:54:52;1.33;;;0.65;;
9306;SDS011;4691;47.612;7.610;2022-09-11T12:57:28;1.42;;;0.70;;
9306;SDS011;4691;47.612;7.610;2022-09-11T13:00:19;1.92;;;0.70;;
9306;SDS011;4691;47.612;7.610;2022-09-11T13:02:56;1.23;;;0.73;;
9306;SDS011;4691;47.612;7.610;2022-09-11T13:06:19;1.38;;;0.60;;
9306;SDS011;4691;47.612;7.610;2022-09-11T13:08:45;1.05;;;0.70;;
9306;SDS011;4691;47.612;7.610;2022-09-11T13:11:36;1.58;;;0.77;;
9306;SDS011;4691;47.612;7.610;2022-09-11T13:14:06;3.53;;;1.10;;
9306;SDS011;4691;47.612;7.610;2022-09-11T13:16:55;1.15;;;0.80;;
9306;SDS011;4691;47.612;7.610;2022-09-11T13:19:44;1.33;;;0.70;;
9306;SDS011;4691;47.612;7.610;2022-09-11T13:22:30;0.70;;;0.70;;
9306;SDS011;4691;47.612;7.610;2022-09-11T13:25:15;0.93;;;0.63;;
9306;SDS011;4691;47.612;7.610;2022-09-11T13:27:59;2.30;;;0.60;;
9306;SDS011;4691;47.612;7.610;2022-09-11T13:30:36;1.58;;;0.70;;
9306;SDS011;4691;47.612;7.610;2022-09-11T13:33:17;1.65;;;0.90;;
9306;SDS011;4691;47.612;7.610;2022-09-11T13:35:54;2.40;;;0.93;;
9306;SDS011;4691;47.612;7.610;2022-09-11T13:38:31;1.63;;;0.73;;
9306;SDS011;4691;47.612;7.610;2022-09-11T13:41:15;2.00;;;0.85;;
9306;SDS011;4691;47.612;7.610;2022-09-11T13:43:47;1.90;;;0.90;;
9306;SDS011;4691;47.612;7.610;2022-09-11T13:46:21;1.65;;;0.90;;
9306;SDS011;4691;47.612;7.610;2022-09-11T13:49:01;1.85;;;0.63;;
9306;SDS011;4691;47.612;7.610;2022-09-11T13:52:02;2.22;;;1.00;;
9306;SDS011;4691;47.612;7.610;2022-09-11T13:54:36;1.17;;;0.73;;
9306;SDS011;4691;47.612;7.610;2022-09-11T13:57:18;1.70;;;1.02;;
9306;SDS011;4691;47.612;7.610;2022-09-11T14:00:03;1.73;;;0.70;;
9306;SDS011;4691;47.612;7.610;2022-09-11T14:02:51;1.60;;;0.80;;
9306;SDS011;4691;47.612;7.610;2022-09-11T14:05:21;2.00;;;0.75;;
9306;SDS011;4691;47.612;7.610;2022-09-11T14:07:57;1.92;;;0.70;;
9306;SDS011;4691;47.612;7.610;2022-09-11T14:13:19;1.30;;;0.70;;
9306;SDS011;4691;47.612;7.610;2022-09-11T14:18:44;0.80;;;0.57;;
9306;SDS011;4691;47.612;7.610;2022-09-11T14:21:20;4.13;;;0.90;;
9306;SDS011;4691;47.612;7.610;2022-09-11T14:23:59;1.00;;;0.65;;
9306;SDS011;4691;47.612;7.610;2022-09-11T15:00:00;1.23;;;0.73;;
9306;SDS011;4691;47.612;7.610;2022-09-11T15:12:47;0.82;;;0.60;;
9306;SDS011;4691;47.612;7.610;2022-09-11T15:38:56;0.95;;;0.70;;
9306;SDS011;4691;47.612;7.610;2022-09-11T15:45:42;1.80;;;0.85;;
9306;SDS011;4691;47.612;7.610;2022-09-11T15:48:32;2.90;;;1.00;;
9306;SDS011;4691;47.612;7.610;2022-09-11T15:54:31;0.88;;;0.70;;
9306;SDS011;4691;47.612;7.610;2022-09-11T16:00:18;2.05;;;0.80;;
9306;SDS011;4691;47.612;7.610;2022-09-11T16:02:44;1.65;;;0.98;;
9306;SDS011;4691;47.612;7.610;2022-09-11T16:05:09;1.73;;;1.17;;
9306;SDS011;4691;47.612;7.610;2022-09-11T16:07:34;2.17;;;0.88;;
9306;SDS011;4691;47.612;7.610;2022-09-11T16:10:00;2.95;;;1.27;;
9306;SDS011;4691;47.612;7.610;2022-09-11T16:12:25;2.22;;;0.80;;
9306;SDS011;4691;47.612;7.610;2022-09-11T16:14:50;1.65;;;1.10;;
9306;SDS011;4691;47.612;7.610;2022-09-11T16:17:16;1.75;;;1.00;;
9306;SDS011;4691;47.612;7.610;2022-09-11T16:23:19;1.27;;;0.70;;
9306;SDS011;4691;47.612;7.610;2022-09-11T16:26:00;1.20;;;1.10;;
9306;SDS011;4691;47.612;7.610;2022-09-11T16:34:06;2.20;;;0.80;;
9306;SDS011;4691;47.612;7.610;2022-09-11T16:36:32;1.60;;;0.75;;
9306;SDS011;4691;47.612;7.610;2022-09-11T16:42:28;2.20;;;0.80;;
9306;SDS011;4691;47.612;7.610;2022-09-11T16:44:54;1.92;;;0.70;;
9306;SDS011;4691;47.612;7.610;2022-09-11T16:47:25;1.85;;;0.70;;
9306;SDS011;4691;47.612;7.610;2022-09-11T16:53:07;1.00;;;0.65;;
9306;SDS011;4691;47.612;7.610;2022-09-11T16:55:34;1.92;;;1.20;;
9306;SDS011;4691;47.612;7.610;2022-09-11T17:01:33;0.90;;;0.80;;
9306;SDS011;4691;47.612;7.610;2022-09-11T17:07:17;1.92;;;0.90;;
9306;SDS011;4691;47.612;7.610;2022-09-11T17:09:45;1.70;;;1.33;;
9306;SDS011;4691;47.612;7.610;2022-09-11T17:12:14;1.70;;;1.05;;
9306;SDS011;4691;47.612;7.610;2022-09-11T17:15:01;2.38;;;1.23;;
9306;SDS011;4691;47.612;7.610;2022-09-11T17:17:30;2.35;;;1.45;;
9306;SDS011;4691;47.612;7.610;2022-09-11T17:19:55;2.53;;;0.85;;
9306;SDS011;4691;47.612;7.610;2022-09-11T17:22:31;1.23;;;1.00;;
9306;SDS011;4691;47.612;7.610;2022-09-11T17:24:59;2.60;;;0.80;;
9306;SDS011;4691;47.612;7.610;2022-09-11T17:27:24;1.85;;;1.00;;
9306;SDS011;4691;47.612;7.610;2022-09-11T17:29:50;2.13;;;1.23;;
9306;SDS011;4691;47.612;7.610;2022-09-11T17:32:18;2.55;;;0.98;;
9306;SDS011;4691;47.612;7.610;2022-09-11T17:34:50;1.63;;;1.05;;
9306;SDS011;4691;47.612;7.610;2022-09-11T17:37:25;1.85;;;1.10;;
9306;SDS011;4691;47.612;7.610;2022-09-11T17:45:34;1.60;;;0.90;;
9306;SDS011;4691;47.612;7.610;2022-09-11T17:51:17;2.45;;;1.05;;
9306;SDS011;4691;47.612;7.610;2022-09-11T17:53:46;1.60;;;1.30;;
9306;SDS011;4691;47.612;7.610;2022-09-11T17:56:15;1.52;;;0.98;;
9306;SDS011;4691;47.612;7.610;2022-09-11T17:58:54;1.53;;;1.00;;
9306;SDS011;4691;47.612;7.610;2022-09-11T18:01:48;2.63;;;1.08;;
9306;SDS011;4691;47.612;7.610;2022-09-11T18:04:17;3.03;;;1.20;;
9306;SDS011;4691;47.612;7.610;2022-09-11T18:06:42;2.45;;;1.02;;
9306;SDS011;4691;47.612;7.610;2022-09-11T18:09:14;1.30;;;1.10;;
9306;SDS011;4691;47.612;7.610;2022-09-11T18:11:42;2.08;;;1.10;;
9306;SDS011;4691;47.612;7.610;2022-09-11T18:14:18;6.78;;;1.23;;
9306;SDS011;4691;47.612;7.610;2022-09-11T18:17:02;2.28;;;1.20;;
9306;SDS011;4691;47.612;7.610;2022-09-11T18:19:47;1.60;;;1.10;;
9306;SDS011;4691;47.612;7.610;2022-09-11T18:22:41;1.70;;;1.10;;
9306;SDS011;4691;47.612;7.610;2022-09-11T18:28:16;1.77;;;1.20;;
9306;SDS011;4691;47.612;7.610;2022-09-11T18:33:55;1.80;;;1.00;;
9306;SDS011;4691;47.612;7.610;2022-09-11T18:36:32;2.92;;;1.30;;
9306;SDS011;4691;47.612;7.610;2022-09-11T18:39:04;2.35;;;1.20;;
9306;SDS011;4691;47.612;7.610;2022-09-11T18:47:37;2.30;;;1.20;;
9306;SDS011;4691;47.612;7.610;2022-09-11T18:50:11;3.88;;;1.63;;
9306;SDS011;4691;47.612;7.610;2022-09-11T18:53:32;2.28;;;1.10;;
9306;SDS011;4691;47.612;7.610;2022-09-11T18:56:08;2.75;;;1.33;;
9306;SDS011;4691;47.612;7.610;2022-09-11T19:04:39;3.85;;;1.50;;
9306;SDS011;4691;47.612;7.610;2022-09-11T19:13:09;2.95;;;2.30;;
9306;SDS011;4691;47.612;7.610;2022-09-11T19:15:40;3.88;;;1.67;;
9306;SDS011;4691;47.612;7.610;2022-09-11T19:18:18;2.60;;;1.85;;
9306;SDS011;4691;47.612;7.610;2022-09-11T19:20:54;4.05;;;2.00;;
9306;SDS011;4691;47.612;7.610;2022-09-11T19:24:03;2.50;;;1.70;;
9306;SDS011;4691;47.612;7.610;2022-09-11T19:26:26;3.65;;;2.05;;
9306;SDS011;4691;47.612;7.610;2022-09-11T19:29:13;2.78;;;1.88;;
9306;SDS011;4691;47.612;7.610;2022-09-11T19:31:47;3.45;;;2.10;;
9306;SDS011;4691;47.612;7.610;2022-09-11T19:34:18;2.97;;;2.00;;
9306;SDS011;4691;47.612;7.610;2022-09-11T19:36:48;4.03;;;2.08;;
9306;SDS011;4691;47.612;7.610;2022-09-11T19:39:20;2.72;;;2.13;;
9306;SDS011;4691;47.612;7.610;2022-09-11T19:41:48;5.07;;;2.25;;
9306;SDS011;4691;47.612;7.610;2022-09-11T19:44:14;3.78;;;2.03;;
9306;SDS011;4691;47.612;7.610;2022-09-11T19:46:40;3.95;;;2.55;;
9306;SDS011;4691;47.612;7.610;2022-09-11T19:49:07;2.95;;;1.80;;
9306;SDS011;4691;47.612;7.610;2022-09-11T19:51:38;5.22;;;2.35;;
9306;SDS011;4691;47.612;7.610;2022-09-11T19:54:05;5.60;;;2.40;;
9306;SDS011;4691;47.612;7.610;2022-09-11T19:56:35;3.53;;;2.20;;
9306;SDS011;4691;47.612;7.610;2022-09-11T19:59:02;4.80;;;2.70;;
9306;SDS011;4691;47.612;7.610;2022-09-11T20:01:29;4.45;;;2.40;;
9306;SDS011;4691;47.612;7.610;2022-09-11T20:04:10;3.10;;;2.50;;
9306;SDS011;4691;47.612;7.610;2022-09-11T20:10:10;2.45;;;2.25;;
9306;SDS011;4691;47.612;7.610;2022-09-11T20:12:38;4.18;;;2.60;;
9306;SDS011;4691;47.612;7.610;2022-09-11T20:15:03;2.75;;;2.28;;
9306;SDS011;4691;47.612;7.610;2022-09-11T20:17:29;4.35;;;2.72;;
9306;SDS011;4691;47.612;7.610;2022-09-11T20:19:55;3.75;;;2.50;;
9306;SDS011;4691;47.612;7.610;2022-09-11T20:22:23;5.30;;;2.25;;
9306;SDS011;4691;47.612;7.610;2022-09-11T20:24:51;3.17;;;2.25;;
9306;SDS011;4691;47.612;7.610;2022-09-11T20:27:16;4.43;;;2.10;;
9306;SDS011;4691;47.612;7.610;2022-09-11T20:29:48;6.50;;;2.10;;
9306;SDS011;4691;47.612;7.610;2022-09-11T20:32:19;4.53;;;2.20;;
9306;SDS011;4691;47.612;7.610;2022-09-11T20:34:45;3.53;;;1.95;;
9306;SDS011;4691;47.612;7.610;2022-09-11T20:37:13;2.75;;;2.00;;
9306;SDS011;4691;47.612;7.610;2022-09-11T20:39:45;2.80;;;2.13;;
9306;SDS011;4691;47.612;7.610;2022-09-11T20:42:13;3.38;;;2.63;;
9306;SDS011;4691;47.612;7.610;2022-09-11T20:44:41;4.82;;;2.65;;
9306;SDS011;4691;47.612;7.610;2022-09-11T20:47:14;3.40;;;2.40;;
9306;SDS011;4691;47.612;7.610;2022-09-11T20:49:40;6.00;;;4.10;;
9306;SDS011;4691;47.612;7.610;2022-09-11T20:52:09;5.00;;;2.88;;
9306;SDS011;4691;47.612;7.610;2022-09-11T20:54:48;6.93;;;3.20;;
9306;SDS011;4691;47.612;7.610;2022-09-11T20:57:14;4.55;;;2.78;;
9306;SDS011;4691;47.612;7.610;2022-09-11T20:59:56;6.32;;;3.03;;
9306;SDS011;4691;47.612;7.610;2022-09-11T21:02:22;4.70;;;2.28;;
9306;SDS011;4691;47.612;7.610;2022-09-11T21:04:50;5.03;;;2.70;;
9306;SDS011;4691;47.612;7.610;2022-09-11T21:07:16;4.43;;;2.78;;
9306;SDS011;4691;47.612;7.610;2022-09-11T21:09:41;4.57;;;2.70;;
9306;SDS011;4691;47.612;7.610;2022-09-11T21:12:07;4.82;;;2.58;;
9306;SDS011;4691;47.612;7.610;2022-09-11T21:14:35;4.90;;;2.80;;
9306;SDS011;4691;47.612;7.610;2022-09-11T21:17:05;4.32;;;2.78;;
9306;SDS011;4691;47.612;7.610;2022-09-11T21:19:30;6.85;;;2.75;;
9306;SDS011;4691;47.612;7.610;2022-09-11T21:21:56;7.10;;;3.20;;
9306;SDS011;4691;47.612;7.610;2022-09-11T21:24:24;7.72;;;3.20;;
9306;SDS011;4691;47.612;7.610;2022-09-11T21:26:49;3.85;;;2.50;;
9306;SDS011;4691;47.612;7.610;2022-09-11T21:29:15;5.68;;;2.80;;
9306;SDS011;4691;47.612;7.610;2022-09-11T21:31:40;5.15;;;3.15;;
9306;SDS011;4691;47.612;7.610;2022-09-11T21:34:06;5.00;;;2.88;;
9306;SDS011;4691;47.612;7.610;2022-09-11T21:36:31;6.53;;;3.22;;
9306;SDS011;4691;47.612;7.610;2022-09-11T21:38:59;4.97;;;3.15;;
9306;SDS011;4691;47.612;7.610;2022-09-11T21:41:25;3.58;;;2.72;;
9306;SDS011;4691;47.612;7.610;2022-09-11T21:43:50;6.25;;;2.88;;
9306;SDS011;4691;47.612;7.610;2022-09-11T21:46:16;4.53;;;2.90;;
9306;SDS011;4691;47.612;7.610;2022-09-11T21:48:43;5.40;;;2.83;;
9306;SDS011;4691;47.612;7.610;2022-09-11T21:51:13;4.70;;;2.67;;
9306;SDS011;4691;47.612;7.610;2022-09-11T21:53:44;3.03;;;2.72;;